Portada
METAR-TAF:

METAR-TAF

Aeroports :

Ha'il, Aràbia Saudita

latitud: 27-26N, longitud: 041-41E, altitud: 1015 m

Observació

L'informe es va fer fa 1 hora i 2 minuts, a les 09:00 UTC
Vent 8 kt del Sud/Sud-Oest
Temperatura 16°C
Humitat 31%
Pressió 1021 hPa
Visibilitat 10 km o més
sense núvols per sota de 1500 mi sense presència de cumulonimbus.

METAR: OEHL 220900Z 21008KT CAVOK 16/M01 Q1021

Hora: 13:02 (10:02 UTC)

Pronòstic

L'informe es va fer fa 11 hores i 2 minuts, a les 23:00 UTC
Pronòstic vàlid del 22 a les 00 UTC al 23 a les 06 UTC
Vent 3 kt amb direcció variable
Visibilitat 10 km o més
Escasses núvols a una alçada de 4000 ft
Núvols disperses a una alçada de 10000 ft
Evolucionant progressivament
l' 22 a les 06 UTC al 22 a les 08 UTC
Vent 12 kt del Est/Sud-Est

TAF: OEHL 212300Z 2200/2306 VRB03KT 9999 FEW040 SCT100 BECMG 2206/2208 12012KT

Observacions i pronòstics meteorològics de més de 4000 aeroports (METAR i TAF).

Les estacions disponibles són els punts grocs i vermells al mapa.

Posi el ratolí al punt desitjat per veure el nom de l'estació.

Feu clic per veure les observacions i els pronòstics meteorològics.

Per canviar el mapa: feu clic els botons verds amb una creu de color negre per apropar; al botó verd amb un guió per allunyar la imatge; o en les fletxes verdes per a mapes adjacents.


METAR-TAF: